Time;durP1;ratioP1;P1;durP2;ratioP2;P2;SDS_P1;SDS_P2;PMS_P1;PMS_P2;Temp;Humidity;BMP_temperature;BMP_pressure;BME280_temperature;BME280_humidity;BME280_pressure;Samples;Min_cycle;Max_cycle;Signal;HPM_P1;HPM_P2
2022/10/22 08:50:19;;;;;;;10.17;4.00;;;20.90;99.90;;;;;;5161232;27;20541;-70
2022/10/22 08:52:51;;;;;;;4.10;3.27;;;20.90;99.90;;;;;;5131266;28;20509;-69
2022/10/22 08:55:25;;;;;;;8.00;3.67;;;20.90;99.90;;;;;;5131091;28;20441;-70
2022/10/22 08:57:59;;;;;;;9.03;3.90;;;21.00;99.90;;;;;;5131973;28;20516;-69
2022/10/22 09:00:33;;;;;;;4.60;3.70;;;21.00;99.90;;;;;;5131997;28;20548;-69
2022/10/22 09:03:20;;;;;;;6.53;4.90;;;21.10;99.90;;;;;;5094406;22;21101;-68
2022/10/22 09:06:01;;;;;;;3.33;3.00;;;21.20;99.90;;;;;;5063741;28;20982;-70
2022/10/22 09:08:28;;;;;;;3.43;3.10;;;21.20;99.90;;;;;;5049446;28;20471;-73
2022/10/22 09:11:01;;;;;;;4.53;3.67;;;21.20;99.90;;;;;;5068571;28;20458;-70
2022/10/22 09:13:29;;;;;;;5.70;2.53;;;21.20;99.90;;;;;;5049395;28;20535;-71
2022/10/22 09:16:00;;;;;;;3.17;2.87;;;21.20;99.90;;;;;;5046139;28;20485;-71
2022/10/22 09:18:36;;;;;;;4.27;3.40;;;21.20;99.90;;;;;;5029357;28;20532;-69
2022/10/22 09:21:14;;;;;;;5.37;3.77;;;21.20;99.90;;;;;;5029087;28;20456;-68
2022/10/22 09:23:56;;;;;;;4.93;3.37;;;21.20;99.90;;;;;;5028885;28;20525;-70
2022/10/22 09:26:23;;;;;;;4.70;3.10;;;21.20;99.90;;;;;;5035143;28;20445;-70
2022/10/22 09:28:51;;;;;;;7.33;3.40;;;21.30;99.90;;;;;;5048362;28;20553;-70
2022/10/22 09:31:18;;;;;;;3.43;2.80;;;21.30;99.90;;;;;;5047866;28;20475;-70
2022/10/22 09:33:47;;;;;;;3.60;3.30;;;21.30;99.90;;;;;;5047910;28;20531;-70
2022/10/22 09:36:17;;;;;;;3.43;2.57;;;21.30;99.90;;;;;;5043077;28;20540;-71
2022/10/22 09:38:47;;;;;;;4.93;3.27;;;21.30;99.90;;;;;;5029179;28;20438;-69
2022/10/22 09:41:15;;;;;;;2.70;2.50;;;21.30;99.90;;;;;;5028051;28;20888;-68
2022/10/22 09:43:42;;;;;;;5.63;2.50;;;21.30;99.90;;;;;;5028967;28;20445;-68
2022/10/22 09:46:16;;;;;;;4.53;2.80;;;21.40;99.90;;;;;;5046973;28;20444;-69
2022/10/22 09:48:48;;;;;;;4.20;2.87;;;21.40;99.90;;;;;;5048677;28;20845;-68
2022/10/22 09:51:20;;;;;;;6.40;3.37;;;21.40;99.90;;;;;;5048128;28;20527;-67
2022/10/22 09:53:55;;;;;;;5.20;2.73;;;21.40;99.90;;;;;;5047953;28;20464;-68
2022/10/22 09:56:26;;;;;;;5.20;4.10;;;21.40;99.90;;;;;;5028900;28;20480;-69
2022/10/22 09:58:56;;;;;;;5.70;3.03;;;21.40;99.90;;;;;;5028304;28;20441;-70
2022/10/22 10:01:25;;;;;;;3.63;3.20;;;21.40;99.90;;;;;;5015930;28;20560;-69
2022/10/22 10:03:52;;;;;;;3.97;2.30;;;21.40;99.90;;;;;;5026868;28;20449;-69
2022/10/22 10:06:21;;;;;;;3.37;2.37;;;21.40;99.90;;;;;;5034873;28;20528;-71
2022/10/22 10:08:49;;;;;;;2.40;2.20;;;21.40;99.90;;;;;;5035404;28;20805;-72
2022/10/22 10:11:26;;;;;;;5.47;3.60;;;21.40;99.90;;;;;;5034706;28;20451;-72
2022/10/22 10:14:02;;;;;;;4.17;2.83;;;21.40;99.90;;;;;;5022867;28;20520;-69
2022/10/22 10:16:45;;;;;;;4.73;3.20;;;21.40;99.90;;;;;;5005011;28;20836;-68
2022/10/22 10:19:46;;;;;;;4.27;3.97;;;21.40;99.90;;;;;;5030644;28;20444;-67
2022/10/22 10:22:28;;;;;;;4.27;3.87;;;21.40;99.90;;;;;;5032720;28;21041;-68
2022/10/22 10:25:19;;;;;;;3.20;2.40;;;21.40;99.90;;;;;;4995202;28;20451;-68
2022/10/22 10:27:52;;;;;;;3.10;2.40;;;21.40;99.90;;;;;;4994681;28;20484;-67
2022/10/22 10:30:22;;;;;;;3.03;1.90;;;21.40;99.90;;;;;;5008213;28;20488;-67
2022/10/22 10:33:09;;;;;;;4.97;2.23;;;21.40;99.90;;;;;;5033826;28;20966;-67
2022/10/22 10:35:45;;;;;;;1.90;1.80;;;21.40;99.90;;;;;;5034165;28;20452;-68
2022/10/22 10:38:43;;;;;;;4.47;2.10;;;21.40;99.90;;;;;;5034243;28;21005;-68
2022/10/22 10:41:26;;;;;;;4.73;2.47;;;21.40;99.90;;;;;;5025660;28;20508;-66
2022/10/22 10:44:13;;;;;;;4.63;3.60;;;21.40;99.90;;;;;;5014268;28;20450;-66
2022/10/22 10:46:51;;;;;;;2.40;1.73;;;21.40;99.90;;;;;;5014173;28;20589;-66
2022/10/22 10:49:22;;;;;;;3.30;2.13;;;21.40;99.90;;;;;;5014144;28;20488;-68
2022/10/22 10:51:58;;;;;;;2.33;2.13;;;21.40;99.90;;;;;;5013988;28;20468;-70
2022/10/22 10:54:40;;;;;;;2.77;2.23;;;21.40;99.90;;;;;;5014011;28;20449;-69
2022/10/22 10:57:16;;;;;;;2.30;2.20;;;21.40;99.90;;;;;;5014141;28;20446;-68
2022/10/22 10:59:58;;;;;;;1.80;1.70;;;21.50;99.90;;;;;;5023370;28;20451;-68
2022/10/22 11:02:43;;;;;;;1.70;1.60;;;21.50;99.90;;;;;;5033364;28;20473;-66
2022/10/22 11:05:27;;;;;;;1.80;1.70;;;21.50;99.90;;;;;;5033735;28;20528;-68
2022/10/22 11:07:59;;;;;;;2.63;1.90;;;21.50;99.90;;;;;;5033726;28;20457;-68
2022/10/22 11:10:35;;;;;;;7.17;1.83;;;21.50;99.90;;;;;;5033421;28;21050;-68
2022/10/22 11:13:13;;;;;;;2.70;1.67;;;21.50;99.90;;;;;;5031881;28;20475;-67
2022/10/22 11:15:45;;;;;;;2.00;1.90;;;21.50;99.90;;;;;;5033228;28;20456;-67
2022/10/22 11:18:20;;;;;;;1.53;1.43;;;21.50;99.90;;;;;;5033796;28;20472;-67
2022/10/22 11:21:03;;;;;;;2.20;1.87;;;21.50;99.90;;;;;;5033770;28;20451;-67
2022/10/22 11:23:36;;;;;;;1.77;1.67;;;21.50;99.90;;;;;;5024460;28;20816;-68
2022/10/22 11:26:13;;;;;;;3.23;1.97;;;21.50;99.90;;;;;;5026773;28;20498;-68
2022/10/22 11:28:44;;;;;;;1.90;1.80;;;21.50;99.90;;;;;;5033360;28;20440;-66
2022/10/22 11:31:15;;;;;;;2.60;1.60;;;21.50;99.90;;;;;;5032921;28;20445;-66
2022/10/22 11:33:51;;;;;;;1.80;1.70;;;21.50;99.90;;;;;;5032718;28;20459;-69
2022/10/22 11:36:23;;;;;;;3.13;2.93;;;21.50;99.90;;;;;;5020012;28;20445;-69
2022/10/22 11:38:51;;;;;;;3.93;2.20;;;21.50;99.90;;;;;;5013156;28;20434;-69
2022/10/22 11:41:26;;;;;;;2.10;1.90;;;21.50;99.90;;;;;;5013011;28;20458;-69
2022/10/22 11:44:10;;;;;;;2.33;1.70;;;21.50;99.90;;;;;;5013007;28;20919;-68
2022/10/22 11:46:56;;;;;;;1.43;1.33;;;21.50;99.90;;;;;;5013132;28;20481;-68
2022/10/22 11:49:26;;;;;;;2.20;1.80;;;21.50;99.90;;;;;;5033109;28;20481;-69
2022/10/22 11:52:21;;;;;;;2.70;1.67;;;21.50;99.90;;;;;;5033559;28;20471;-69
2022/10/22 11:54:48;;;;;;;4.20;2.00;;;21.50;99.90;;;;;;5032576;28;20445;-69
2022/10/22 11:57:28;;;;;;;2.43;2.13;;;21.50;99.90;;;;;;5013440;28;20446;-69
2022/10/22 11:59:58;;;;;;;2.27;2.00;;;21.50;99.90;;;;;;5012727;28;20507;-69
2022/10/22 12:02:42;;;;;;;1.50;1.40;;;21.50;99.90;;;;;;5012447;28;20501;-69
2022/10/22 12:05:35;;;;;;;1.80;1.67;;;21.50;99.90;;;;;;5027777;28;20476;-69
2022/10/22 12:08:41;;;;;;;2.00;1.90;;;21.50;99.90;;;;;;5032173;28;20967;-73
2022/10/22 12:11:16;;;;;;;1.80;1.37;;;21.50;99.90;;;;;;4952146;29;20445;-69
2022/10/22 12:14:13;;;;;;;5.20;1.60;;;21.50;99.90;;;;;;4948236;29;20449;-68
2022/10/22 12:16:43;;;;;;;1.47;1.40;;;21.50;99.90;;;;;;4992259;28;20464;-68
2022/10/22 12:19:15;;;;;;;1.30;1.20;;;21.40;99.90;;;;;;5013070;28;20442;-67
2022/10/22 12:21:44;;;;;;;2.47;1.90;;;21.50;99.90;;;;;;5012814;28;20811;-67
2022/10/22 12:24:15;;;;;;;2.40;1.93;;;21.50;99.90;;;;;;5012576;28;20904;-67
2022/10/22 12:26:44;;;;;;;1.50;1.40;;;21.50;99.90;;;;;;5024047;28;20449;-67
2022/10/22 12:29:15;;;;;;;1.53;1.40;;;21.50;99.90;;;;;;5014765;28;20481;-67
2022/10/22 12:31:44;;;;;;;1.30;1.23;;;21.50;99.90;;;;;;5012459;28;20577;-68
2022/10/22 12:34:14;;;;;;;3.63;2.23;;;21.50;99.90;;;;;;5012401;28;20493;-68
2022/10/22 12:36:42;;;;;;;2.37;1.67;;;21.50;99.90;;;;;;5012704;28;20472;-66
2022/10/22 12:39:14;;;;;;;1.40;1.30;;;21.50;99.90;;;;;;5028234;28;20532;-68
2022/10/22 12:41:42;;;;;;;2.77;2.10;;;21.50;99.90;;;;;;5031995;28;20548;-68
2022/10/22 12:44:14;;;;;;;2.20;1.97;;;21.50;99.90;;;;;;5031873;28;20454;-68
2022/10/22 12:46:43;;;;;;;2.47;2.27;;;21.50;99.90;;;;;;5032294;28;20452;-69
2022/10/22 12:49:16;;;;;;;2.73;1.93;;;21.50;99.90;;;;;;5032038;28;20441;-69
2022/10/22 12:51:45;;;;;;;5.17;2.60;;;21.50;99.90;;;;;;4992546;28;20473;-69
2022/10/22 12:54:21;;;;;;;3.40;2.43;;;21.50;99.90;;;;;;4992125;28;20829;-69
2022/10/22 12:56:48;;;;;;;3.13;2.23;;;21.50;99.90;;;;;;4992256;28;20509;-69
2022/10/22 12:59:21;;;;;;;2.27;2.17;;;21.50;99.90;;;;;;5019961;28;20447;-70
2022/10/22 13:01:50;;;;;;;3.27;2.00;;;21.50;99.90;;;;;;5031646;28;20477;-69
2022/10/22 13:04:31;;;;;;;4.30;2.10;;;21.50;99.90;;;;;;5031793;28;20930;-70
2022/10/22 13:07:14;;;;;;;3.93;2.50;;;21.50;99.90;;;;;;5031827;28;20449;-70
2022/10/22 13:09:43;;;;;;;5.23;2.90;;;21.60;99.90;;;;;;5014560;28;21015;-69
2022/10/22 13:12:15;;;;;;;1.83;1.70;;;21.50;99.90;;;;;;5011908;28;20552;-69
2022/10/22 13:14:44;;;;;;;2.63;2.43;;;21.60;99.90;;;;;;5012049;28;20805;-69
2022/10/22 13:17:15;;;;;;;2.13;2.03;;;21.50;99.90;;;;;;5011907;28;20469;-71
2022/10/22 13:19:46;;;;;;;2.63;2.43;;;21.60;99.90;;;;;;5011835;28;20449;-67
2022/10/22 13:22:32;;;;;;;2.50;2.30;;;21.60;99.90;;;;;;5017317;28;20465;-69
2022/10/22 13:25:03;;;;;;;2.87;2.20;;;21.60;99.90;;;;;;5015020;28;20454;-70
2022/10/22 13:27:31;;;;;;;1.93;1.83;;;21.60;99.90;;;;;;5011875;28;20449;-69
2022/10/22 13:30:09;;;;;;;2.20;1.93;;;21.60;99.90;;;;;;5011761;28;20477;-69
2022/10/22 13:32:36;;;;;;;5.67;2.97;;;21.60;99.90;;;;;;5016445;28;20553;-69
2022/10/22 13:35:04;;;;;;;2.43;2.23;;;21.60;99.90;;;;;;5032129;28;20476;-69
2022/10/22 13:37:34;;;;;;;3.20;2.20;;;21.60;99.90;;;;;;5035149;28;20507;-69
2022/10/22 13:40:01;;;;;;;2.20;2.10;;;21.60;99.90;;;;;;5035136;28;20896;-69
2022/10/22 13:42:28;;;;;;;3.80;2.90;;;21.60;99.90;;;;;;5031143;28;20466;-69
2022/10/22 13:44:55;;;;;;;5.10;2.20;;;21.60;99.90;;;;;;5015291;28;20452;-68
2022/10/22 13:47:28;;;;;;;3.40;2.93;;;21.60;99.90;;;;;;5015092;28;20445;-69
2022/10/22 13:50:00;;;;;;;2.67;2.47;;;21.60;99.90;;;;;;5015350;28;20576;-77
2022/10/22 13:52:31;;;;;;;4.07;3.27;;;21.70;99.90;;;;;;5015075;28;20836;-69
2022/10/22 13:54:58;;;;;;;3.50;2.30;;;21.60;99.90;;;;;;5023916;28;20448;-71
2022/10/22 13:57:25;;;;;;;3.03;2.83;;;21.70;99.90;;;;;;5035075;28;20452;-68
2022/10/22 13:59:52;;;;;;;7.03;3.20;;;21.70;99.90;;;;;;5034664;28;20447;-69
2022/10/22 14:02:23;;;;;;;3.00;2.60;;;21.70;99.90;;;;;;5033420;28;20982;-69
2022/10/22 14:04:52;;;;;;;2.53;2.33;;;21.70;99.90;;;;;;5015880;28;20446;-70
2022/10/22 14:07:19;;;;;;;3.13;2.73;;;21.70;99.90;;;;;;5015748;28;20446;-69
2022/10/22 14:09:46;;;;;;;3.87;2.50;;;21.70;99.90;;;;;;5015440;28;20481;-69
2022/10/22 14:12:14;;;;;;;2.47;2.30;;;21.70;99.90;;;;;;5028145;28;20472;-69
2022/10/22 14:14:41;;;;;;;2.60;2.17;;;21.70;99.90;;;;;;5035066;28;20845;-70
2022/10/22 14:17:15;;;;;;;2.67;1.80;;;21.70;99.90;;;;;;5034030;28;20480;-69
2022/10/22 14:19:43;;;;;;;3.23;2.70;;;21.70;99.90;;;;;;5034477;28;20934;-70
2022/10/22 14:22:15;;;;;;;2.97;2.23;;;21.70;99.90;;;;;;5021786;28;20983;-70
2022/10/22 14:24:42;;;;;;;2.90;2.30;;;21.70;99.90;;;;;;5015628;28;20453;-70
2022/10/22 14:27:14;;;;;;;1.80;1.70;;;21.70;99.90;;;;;;5014905;28;20442;-72
2022/10/22 14:29:41;;;;;;;2.47;2.30;;;21.70;99.90;;;;;;5014418;28;20527;-71
2022/10/22 14:32:13;;;;;;;3.53;2.10;;;21.80;99.90;;;;;;5014497;28;20544;-73
2022/10/22 14:34:41;;;;;;;1.97;1.83;;;21.80;99.90;;;;;;5032123;28;20530;-72
2022/10/22 14:37:17;;;;;;;4.03;2.90;;;21.80;99.90;;;;;;5034097;28;20536;-72
2022/10/22 14:39:45;;;;;;;2.73;2.00;;;21.80;99.90;;;;;;5033955;28;20449;-72
2022/10/22 14:42:12;;;;;;;3.47;2.50;;;21.80;99.90;;;;;;5034022;28;20850;-73
2022/10/22 14:44:39;;;;;;;2.63;2.43;;;21.80;99.90;;;;;;5031757;28;20527;-70
2022/10/22 14:47:06;;;;;;;2.40;2.10;;;21.80;99.90;;;;;;5014063;28;20541;-75
2022/10/22 14:49:33;;;;;;;2.70;2.07;;;21.80;99.90;;;;;;5014055;28;20546;-70
2022/10/22 14:52:00;;;;;;;2.40;1.73;;;21.80;99.90;;;;;;5014346;28;20901;-71
2022/10/22 14:54:32;;;;;;;3.57;2.50;;;21.80;99.90;;;;;;5031657;28;20445;-71
2022/10/22 14:57:04;;;;;;;3.67;2.27;;;21.80;99.90;;;;;;5033754;28;20450;-71
2022/10/22 14:59:35;;;;;;;2.43;2.23;;;21.80;99.90;;;;;;5033347;28;20536;-71
2022/10/22 15:02:02;;;;;;;4.13;2.30;;;21.90;99.90;;;;;;5059006;22;20523;-69
2022/10/22 15:04:29;;;;;;;3.87;2.33;;;21.80;99.90;;;;;;5040319;28;20517;-69
2022/10/22 15:06:57;;;;;;;2.10;1.90;;;21.90;99.90;;;;;;5035390;28;20821;-67
2022/10/22 15:09:24;;;;;;;2.40;2.17;;;21.90;99.90;;;;;;5034868;28;20445;-68
2022/10/22 15:11:53;;;;;;;3.00;2.67;;;21.90;99.90;;;;;;5035967;28;20496;-69
2022/10/22 15:14:19;;;;;;;2.20;1.90;;;21.80;99.90;;;;;;5030483;28;20451;-68
2022/10/22 15:16:46;;;;;;;2.60;1.97;;;21.80;99.90;;;;;;5034244;28;20473;-67
2022/10/22 15:19:13;;;;;;;4.17;2.10;;;21.80;99.90;;;;;;5033729;28;20964;-68
2022/10/22 15:21:40;;;;;;;2.90;2.70;;;21.90;99.90;;;;;;5033105;28;20556;-66
2022/10/22 15:24:07;;;;;;;2.67;2.17;;;21.80;99.90;;;;;;5033192;28;20528;-73
2022/10/22 15:26:34;;;;;;;1.77;1.67;;;21.80;99.90;;;;;;5033150;28;20480;-72
2022/10/22 15:29:04;;;;;;;2.73;2.00;;;21.90;99.90;;;;;;5032980;28;20536;-74
2022/10/22 15:31:48;;;;;;;2.70;2.50;;;21.90;99.90;;;;;;5033018;28;20489;-73
2022/10/22 15:34:20;;;;;;;3.27;2.00;;;21.90;99.90;;;;;;5032689;28;20449;-74
2022/10/22 15:36:47;;;;;;;1.93;1.73;;;22.00;99.90;;;;;;5032775;28;20526;-74
2022/10/22 15:39:14;;;;;;;2.97;1.83;;;22.00;99.90;;;;;;5032398;28;20792;-73
2022/10/22 15:41:41;;;;;;;2.27;1.70;;;22.00;99.90;;;;;;5032632;28;20496;-73
2022/10/22 15:44:16;;;;;;;2.43;2.00;;;22.00;99.90;;;;;;5032448;28;20873;-72
2022/10/22 15:46:43;;;;;;;1.70;1.60;;;22.00;99.90;;;;;;5032670;28;21069;-73
2022/10/22 15:49:10;;;;;;;3.07;2.07;;;22.00;99.90;;;;;;5032599;28;20441;-72
2022/10/22 15:51:36;;;;;;;1.90;1.80;;;22.10;99.90;;;;;;5032360;28;20481;-72
2022/10/22 15:54:04;;;;;;;2.07;1.80;;;22.10;99.90;;;;;;5031894;28;20451;-73
2022/10/22 15:56:31;;;;;;;3.13;1.63;;;22.10;99.90;;;;;;5032357;28;20508;-72
2022/10/22 15:59:01;;;;;;;1.70;1.60;;;22.10;99.90;;;;;;5031338;28;20540;-73
2022/10/22 16:01:30;;;;;;;3.13;2.03;;;22.10;99.90;;;;;;5031405;28;20449;-73
2022/10/22 16:04:01;;;;;;;2.30;2.10;;;22.10;99.90;;;;;;5031782;28;20448;-73
2022/10/22 16:06:29;;;;;;;3.03;1.90;;;22.10;99.90;;;;;;5032428;28;20445;-71
2022/10/22 16:09:00;;;;;;;3.97;1.80;;;22.10;99.90;;;;;;5031797;28;20453;-70
2022/10/22 16:11:28;;;;;;;2.07;1.87;;;22.10;99.90;;;;;;5031572;28;20516;-70
2022/10/22 16:13:55;;;;;;;3.50;3.13;;;22.10;99.90;;;;;;5032915;28;20503;-66
2022/10/22 16:16:23;;;;;;;2.60;2.00;;;22.00;99.90;;;;;;5033371;28;20459;-66
2022/10/22 16:18:51;;;;;;;1.93;1.83;;;22.00;99.90;;;;;;5032854;28;20536;-68
2022/10/22 16:21:19;;;;;;;2.40;1.93;;;22.00;99.90;;;;;;5032975;28;20437;-67
2022/10/22 16:23:46;;;;;;;2.63;1.97;;;22.00;99.90;;;;;;5033175;28;20535;-66
2022/10/22 16:26:14;;;;;;;1.93;1.57;;;22.00;99.90;;;;;;5033423;28;20449;-66
2022/10/22 16:28:41;;;;;;;3.50;2.17;;;22.00;99.90;;;;;;5032844;28;21339;-67
2022/10/22 16:31:11;;;;;;;2.53;2.40;;;22.00;99.90;;;;;;5033224;28;20567;-67
2022/10/22 16:33:39;;;;;;;2.53;2.20;;;22.00;99.90;;;;;;5032938;28;20552;-67
2022/10/22 16:36:08;;;;;;;3.63;2.27;;;22.00;99.90;;;;;;5033189;28;20818;-66
2022/10/22 16:38:35;;;;;;;2.63;2.43;;;22.00;99.90;;;;;;5032211;28;20440;-66
2022/10/22 16:41:09;;;;;;;2.20;1.90;;;22.00;99.90;;;;;;5032110;28;20445;-66
2022/10/22 16:43:36;;;;;;;1.40;1.30;;;22.00;99.90;;;;;;5032088;28;20499;-66
2022/10/22 16:46:04;;;;;;;3.67;2.23;;;22.10;99.90;;;;;;5033129;28;20468;-65
2022/10/22 16:48:31;;;;;;;2.83;2.40;;;22.10;99.90;;;;;;5033071;28;20457;-68
2022/10/22 16:50:59;;;;;;;2.83;2.07;;;22.10;99.90;;;;;;5032921;28;20519;-66
2022/10/22 16:53:28;;;;;;;1.90;1.80;;;22.10;99.90;;;;;;5032256;28;20531;-65
2022/10/22 16:55:55;;;;;;;3.60;2.30;;;22.10;99.90;;;;;;5032987;28;20536;-65
2022/10/22 16:58:21;;;;;;;3.40;3.20;;;22.10;99.90;;;;;;5033145;28;20922;-66
2022/10/22 17:00:49;;;;;;;2.83;2.63;;;22.10;99.90;;;;;;5032347;28;21049;-68
2022/10/22 17:03:16;;;;;;;4.50;2.33;;;22.10;99.90;;;;;;5032064;28;20997;-65
2022/10/22 17:05:43;;;;;;;3.30;2.27;;;22.10;99.90;;;;;;5032970;28;20544;-64
2022/10/22 17:08:10;;;;;;;3.07;2.20;;;22.20;99.90;;;;;;5032295;28;20451;-69
2022/10/22 17:10:40;;;;;;;2.87;2.07;;;22.20;99.90;;;;;;5034409;28;20834;-67
2022/10/22 17:13:07;;;;;;;4.03;2.53;;;22.20;99.90;;;;;;5036648;28;20991;-63
2022/10/22 17:15:35;;;;;;;2.13;2.03;;;22.20;99.90;;;;;;5037073;28;20528;-63
2022/10/22 17:18:02;;;;;;;4.90;2.37;;;22.20;99.90;;;;;;5036573;28;20456;-63
2022/10/22 17:20:30;;;;;;;2.20;1.90;;;22.20;99.90;;;;;;5036613;28;20485;-64
2022/10/22 17:22:57;;;;;;;3.50;2.40;;;22.20;99.90;;;;;;5036152;28;20519;-64
2022/10/22 17:25:32;;;;;;;2.80;2.60;;;22.30;99.90;;;;;;5036866;28;20449;-65
2022/10/22 17:28:01;;;;;;;2.27;2.10;;;22.20;99.90;;;;;;5036553;28;20475;-66
2022/10/22 17:30:29;;;;;;;2.77;1.97;;;22.20;99.90;;;;;;5036508;28;20448;-66
2022/10/22 17:32:56;;;;;;;1.97;1.77;;;22.20;99.90;;;;;;5036587;28;20465;-66
2022/10/22 17:35:23;;;;;;;4.27;3.87;;;22.20;99.90;;;;;;5036307;28;20441;-66
2022/10/22 17:37:50;;;;;;;2.67;2.43;;;22.30;99.90;;;;;;5035852;28;21146;-66
2022/10/22 17:40:17;;;;;;;2.30;2.20;;;22.20;99.90;;;;;;5036555;28;20441;-65
2022/10/22 17:42:44;;;;;;;4.40;3.10;;;22.20;99.90;;;;;;5035832;28;20465;-65
2022/10/22 17:45:13;;;;;;;2.23;2.13;;;22.30;99.90;;;;;;5035795;28;20876;-63
2022/10/22 17:47:39;;;;;;;2.87;2.63;;;22.30;99.90;;;;;;5035691;28;20527;-64
2022/10/22 17:50:07;;;;;;;4.93;2.10;;;22.30;99.90;;;;;;5034952;28;20779;-64
2022/10/22 17:52:35;;;;;;;2.83;2.63;;;22.20;99.90;;;;;;5035804;28;20480;-63
2022/10/22 17:55:03;;;;;;;2.40;2.10;;;22.20;99.90;;;;;;5036101;28;20449;-64
2022/10/22 17:57:31;;;;;;;2.00;1.90;;;22.20;99.90;;;;;;5035608;28;20449;-64
2022/10/22 17:59:58;;;;;;;2.60;2.10;;;22.10;99.90;;;;;;5035693;28;20502;-63
2022/10/22 18:02:26;;;;;;;2.50;2.30;;;22.10;99.90;;;;;;5035493;28;20491;-64
2022/10/22 18:04:53;;;;;;;2.63;2.43;;;22.10;99.90;;;;;;5036303;28;20441;-64
2022/10/22 18:07:20;;;;;;;2.00;1.80;;;22.10;99.90;;;;;;5035581;28;20467;-64
2022/10/22 18:09:47;;;;;;;3.23;2.07;;;22.10;99.90;;;;;;5036381;28;20536;-64
2022/10/22 18:12:16;;;;;;;2.50;2.17;;;22.10;99.90;;;;;;5036118;28;20484;-65
2022/10/22 18:14:44;;;;;;;2.20;2.10;;;22.10;99.90;;;;;;5036678;28;20452;-64
2022/10/22 18:17:12;;;;;;;1.97;1.83;;;22.00;99.90;;;;;;5036439;28;20449;-66
2022/10/22 18:19:40;;;;;;;2.13;2.00;;;22.00;99.90;;;;;;5036034;28;20475;-65
2022/10/22 18:22:07;;;;;;;3.70;2.30;;;22.00;99.90;;;;;;5035664;28;20461;-65
2022/10/22 18:24:35;;;;;;;2.33;2.10;;;22.00;99.90;;;;;;5035596;28;20449;-64
2022/10/22 18:27:03;;;;;;;4.17;3.10;;;22.00;99.90;;;;;;5035551;28;20450;-64
2022/10/22 18:29:30;;;;;;;2.60;2.50;;;22.00;99.90;;;;;;5035583;28;20919;-65
2022/10/22 18:31:57;;;;;;;2.20;1.80;;;22.00;99.90;;;;;;5036044;28;20575;-64
2022/10/22 18:34:24;;;;;;;3.50;2.27;;;22.00;99.90;;;;;;5035503;28;20480;-65
2022/10/22 18:36:53;;;;;;;2.43;2.13;;;22.00;99.90;;;;;;5035534;28;20449;-64
2022/10/22 18:39:20;;;;;;;2.60;2.10;;;22.00;99.90;;;;;;5035812;28;20536;-64
2022/10/22 18:41:47;;;;;;;2.87;1.70;;;22.00;99.90;;;;;;5035447;28;20827;-63
2022/10/22 18:44:15;;;;;;;2.60;2.40;;;22.00;99.90;;;;;;5034924;28;20950;-64
2022/10/22 18:46:42;;;;;;;4.97;4.50;;;22.00;99.90;;;;;;5035464;28;20476;-64
2022/10/22 18:49:14;;;;;;;2.43;1.70;;;22.00;99.90;;;;;;5035524;28;20849;-64
2022/10/22 18:51:41;;;;;;;2.50;2.30;;;22.00;99.90;;;;;;5035276;28;20556;-64
2022/10/22 18:54:10;;;;;;;1.80;1.70;;;22.00;99.90;;;;;;5034350;28;20514;-65
2022/10/22 18:56:38;;;;;;;3.10;2.90;;;21.90;99.90;;;;;;5035081;28;20532;-63
2022/10/22 18:59:05;;;;;;;2.17;2.00;;;21.90;99.90;;;;;;5035033;28;20499;-63
2022/10/22 19:01:34;;;;;;;2.97;2.77;;;21.90;99.90;;;;;;5034737;28;20440;-63
2022/10/22 19:04:01;;;;;;;2.10;2.00;;;21.90;99.90;;;;;;5034553;28;20445;-64
2022/10/22 19:06:30;;;;;;;2.60;2.00;;;21.90;99.90;;;;;;5034749;28;20481;-62
2022/10/22 19:08:58;;;;;;;2.37;2.03;;;21.90;99.90;;;;;;5034904;28;20445;-63
2022/10/22 19:11:26;;;;;;;2.00;1.80;;;21.90;99.90;;;;;;5034821;28;20481;-64
2022/10/22 19:13:54;;;;;;;2.17;1.97;;;21.90;99.90;;;;;;5034322;28;20533;-63
2022/10/22 19:16:23;;;;;;;2.27;2.10;;;21.90;99.90;;;;;;5034245;28;20942;-65
2022/10/22 19:18:51;;;;;;;4.53;2.17;;;21.90;99.90;;;;;;5034698;28;20547;-64
2022/10/22 19:21:19;;;;;;;2.30;2.13;;;21.90;99.90;;;;;;5034502;28;20532;-62
2022/10/22 19:23:46;;;;;;;2.60;1.80;;;21.90;99.90;;;;;;5034341;28;20456;-61
2022/10/22 19:26:15;;;;;;;2.43;2.30;;;21.90;99.90;;;;;;5033943;28;20455;-62
2022/10/22 19:28:44;;;;;;;1.90;1.80;;;21.90;99.90;;;;;;5034050;28;20906;-62
2022/10/22 19:31:13;;;;;;;1.93;1.83;;;21.90;99.90;;;;;;5034069;28;20499;-63
2022/10/22 19:33:40;;;;;;;2.23;1.93;;;21.90;99.90;;;;;;5032788;28;20624;-62
2022/10/22 19:36:09;;;;;;;2.30;2.10;;;21.90;99.90;;;;;;5033995;28;20528;-64
2022/10/22 19:38:39;;;;;;;3.17;2.83;;;21.90;99.90;;;;;;5033967;28;20441;-63
2022/10/22 19:41:07;;;;;;;2.10;2.00;;;21.90;99.90;;;;;;5033922;28;20508;-64
2022/10/22 19:43:34;;;;;;;3.60;1.70;;;21.90;99.90;;;;;;5033618;28;20469;-64
2022/10/22 19:46:04;;;;;;;3.87;3.50;;;21.90;99.90;;;;;;5033749;28;21004;-63
2022/10/22 19:48:31;;;;;;;3.20;2.13;;;21.90;99.90;;;;;;5034216;28;20951;-67
2022/10/22 19:51:01;;;;;;;2.17;2.07;;;21.90;99.90;;;;;;5034547;28;20453;-66
2022/10/22 19:53:29;;;;;;;3.10;1.97;;;22.00;99.90;;;;;;5033723;28;20990;-65
2022/10/22 19:55:56;;;;;;;3.33;2.93;;;22.00;99.90;;;;;;5033378;28;20449;-65
2022/10/22 19:58:23;;;;;;;2.90;2.43;;;22.00;99.90;;;;;;5033495;28;20441;-67
2022/10/22 20:00:50;;;;;;;1.93;1.83;;;22.00;99.90;;;;;;5034086;28;20879;-67
2022/10/22 20:03:19;;;;;;;2.00;1.90;;;22.00;99.90;;;;;;5033305;28;20900;-67
2022/10/22 20:05:47;;;;;;;2.97;2.37;;;22.00;99.90;;;;;;5034231;28;20446;-67
2022/10/22 20:08:14;;;;;;;2.50;2.30;;;22.00;99.90;;;;;;5033336;28;20532;-68
2022/10/22 20:10:43;;;;;;;2.17;1.93;;;22.00;99.90;;;;;;5033818;28;20442;-66
2022/10/22 20:13:11;;;;;;;2.50;2.30;;;22.00;99.90;;;;;;5033019;28;20512;-66
2022/10/22 20:15:38;;;;;;;2.13;2.03;;;22.00;99.90;;;;;;5033586;28;20452;-66
2022/10/22 20:18:05;;;;;;;2.83;2.27;;;22.00;99.90;;;;;;5032260;28;20477;-66
2022/10/22 20:20:36;;;;;;;2.03;1.93;;;22.00;99.90;;;;;;5031829;28;20445;-66
2022/10/22 20:23:03;;;;;;;2.30;2.10;;;22.00;99.90;;;;;;5031735;28;20461;-65
2022/10/22 20:25:30;;;;;;;4.30;3.90;;;22.00;99.90;;;;;;5031874;28;20444;-66
